createdAt,value
2019-01-02T00:00:49.718Z,1.40
2019-01-02T00:02:49.756Z,1.39
2019-01-02T00:04:51.300Z,1.36
2019-01-02T00:06:50.184Z,1.37
2019-01-02T00:08:50.285Z,1.41
2019-01-02T00:10:50.399Z,1.48
2019-01-02T00:12:51.376Z,1.50
2019-01-02T00:14:49.944Z,1.55
2019-01-02T00:16:50.235Z,1.59
2019-01-02T00:18:50.308Z,1.73
2019-01-02T00:20:51.305Z,1.78
2019-01-02T00:22:50.033Z,1.83
2019-01-02T00:24:49.997Z,1.84
2019-01-02T00:26:50.202Z,1.81
2019-01-02T00:28:51.089Z,1.85
2019-01-02T00:30:50.553Z,1.84
2019-01-02T00:32:50.700Z,1.80
2019-01-02T00:34:50.197Z,1.78
2019-01-02T00:36:50.990Z,1.81
2019-01-02T00:38:50.888Z,1.83
2019-01-02T00:40:50.032Z,1.88
2019-01-02T00:42:50.193Z,1.92
2019-01-02T00:44:50.247Z,1.97
2019-01-02T00:46:51.387Z,1.78
2019-01-02T00:48:49.882Z,1.53
2019-01-02T00:50:50.054Z,1.37
2019-01-02T00:52:50.181Z,1.25
2019-01-02T00:54:51.142Z,1.05
2019-01-02T00:56:50.850Z,0.78
2019-01-02T00:58:50.555Z,0.64
2019-01-02T01:00:50.577Z,0.48
2019-01-02T01:02:49.747Z,0.60
2019-01-02T01:04:51.076Z,0.57
2019-01-02T01:06:50.877Z,0.54
2019-01-02T01:08:50.355Z,0.51
2019-01-02T01:10:50.386Z,0.49
2019-01-02T01:12:50.417Z,0.50
2019-01-02T01:14:51.426Z,0.51
2019-01-02T01:16:51.162Z,0.52
2019-01-02T01:18:49.931Z,0.52
2019-01-02T01:20:49.872Z,0.50
2019-01-02T01:22:50.033Z,0.51
2019-01-02T01:24:50.010Z,0.50
2019-01-02T01:26:50.259Z,0.49
2019-01-02T01:28:50.295Z,0.44
2019-01-02T01:30:51.373Z,0.43
2019-01-02T01:32:50.074Z,0.42
2019-01-02T01:34:50.358Z,0.42
2019-01-02T01:36:50.340Z,0.40
2019-01-02T01:38:50.061Z,0.40
2019-01-02T01:40:50.341Z,0.40
2019-01-02T01:42:51.321Z,0.43
2019-01-02T01:44:51.056Z,0.43
2019-01-02T01:46:50.583Z,0.44
2019-01-02T01:48:50.705Z,0.44
2019-01-02T01:50:50.544Z,0.44
2019-01-02T01:52:50.139Z,0.43
2019-01-02T01:54:50.184Z,0.45
2019-01-02T01:56:50.852Z,0.46
2019-01-02T01:58:50.429Z,0.48
2019-01-02T02:00:50.420Z,0.47
2019-01-02T02:02:51.502Z,0.46
2019-01-02T02:04:50.436Z,0.48
2019-01-02T02:06:49.748Z,0.48
2019-01-02T02:08:49.698Z,0.50
2019-01-02T02:10:50.740Z,0.47
2019-01-02T02:12:50.519Z,0.49
2019-01-02T02:14:50.561Z,0.51
2019-01-02T02:16:51.048Z,0.50
2019-01-02T02:18:49.725Z,0.47
2019-01-02T02:20:49.959Z,0.47
2019-01-02T02:22:50.827Z,0.49
2019-01-02T02:24:50.633Z,0.48
2019-01-02T02:26:50.095Z,0.53
2019-01-02T02:28:50.208Z,0.56
2019-01-02T02:30:51.219Z,0.54
2019-01-02T02:32:50.886Z,0.53
2019-01-02T02:34:49.855Z,0.53
2019-01-02T02:36:51.180Z,0.59
2019-01-02T02:38:50.818Z,0.64
2019-01-02T02:40:50.395Z,0.65
2019-01-02T02:42:51.347Z,0.68
2019-01-02T02:44:50.919Z,0.68
2019-01-02T02:46:49.779Z,0.72
2019-01-02T02:48:50.866Z,0.73
2019-01-02T02:50:51.327Z,0.77
2019-01-02T02:52:49.960Z,0.77
2019-01-02T02:54:50.105Z,0.81
2019-01-02T02:56:51.303Z,0.83
2019-01-02T02:58:50.805Z,0.83
2019-01-02T03:00:51.212Z,0.82
2019-01-02T03:02:49.879Z,0.85
2019-01-02T03:04:51.470Z,0.85
2019-01-02T03:06:56.206Z,0.82
2019-01-02T03:08:49.792Z,0.82
2019-01-02T03:10:50.993Z,0.83
2019-01-02T03:12:51.521Z,0.88
2019-01-02T03:14:50.147Z,0.90
2019-01-02T03:16:51.440Z,0.93
2019-01-02T03:18:51.034Z,0.95
2019-01-02T03:20:49.731Z,0.94
2019-01-02T03:22:50.830Z,0.96
2019-01-02T03:24:51.437Z,0.99
2019-01-02T03:26:50.414Z,1.01
2019-01-02T03:28:51.434Z,1.01
2019-01-02T03:30:51.063Z,0.97
2019-01-02T03:32:51.597Z,0.96
2019-01-02T03:34:50.662Z,0.96
2019-01-02T03:36:49.859Z,0.94
2019-01-02T03:38:49.940Z,0.93
2019-01-02T03:40:49.986Z,0.92
2019-01-02T03:42:49.912Z,0.92
2019-01-02T03:44:49.898Z,0.97
2019-01-02T03:46:50.121Z,1.04
2019-01-02T03:48:50.154Z,1.06
2019-01-02T03:50:50.175Z,1.08
2019-01-02T03:52:50.214Z,1.08
2019-01-02T03:54:50.239Z,1.08
2019-01-02T03:56:50.362Z,1.12
2019-01-02T03:58:50.398Z,1.17
2019-01-02T04:00:50.445Z,1.19
2019-01-02T04:02:50.474Z,1.20
2019-01-02T04:04:49.798Z,1.21
2019-01-02T04:06:50.106Z,1.25
2019-01-02T04:08:50.072Z,1.24
2019-01-02T04:10:50.138Z,1.22
2019-01-02T04:12:50.181Z,1.22
2019-01-02T04:14:50.185Z,1.22
2019-01-02T04:16:50.371Z,1.21
2019-01-02T04:18:50.421Z,1.19
2019-01-02T04:20:50.449Z,1.18
2019-01-02T04:22:50.475Z,1.18
2019-01-02T04:24:50.409Z,1.16
2019-01-02T04:26:49.747Z,1.15
2019-01-02T04:28:49.698Z,1.14
2019-01-02T04:30:49.733Z,1.14
2019-01-02T04:32:49.855Z,1.13
2019-01-02T04:34:50.155Z,1.11
2019-01-02T04:36:50.347Z,1.11
2019-01-02T04:38:50.396Z,1.09
2019-01-02T04:40:50.333Z,1.08
2019-01-02T04:42:50.359Z,1.07
2019-01-02T04:44:50.382Z,1.07
2019-01-02T04:46:50.624Z,1.07
2019-01-02T04:48:50.601Z,1.08
2019-01-02T04:50:50.515Z,1.06
2019-01-02T04:52:50.499Z,1.05
2019-01-02T04:54:50.507Z,1.04
2019-01-02T04:56:49.872Z,1.03
2019-01-02T04:58:49.851Z,1.07
2019-01-02T05:00:49.840Z,1.10
2019-01-02T05:02:49.842Z,1.18
2019-01-02T05:04:50.177Z,1.17
2019-01-02T05:06:50.273Z,1.19
2019-01-02T05:08:50.326Z,1.20
2019-01-02T05:10:50.291Z,1.19
2019-01-02T05:12:50.329Z,1.17
2019-01-02T05:14:50.320Z,1.17
2019-01-02T05:16:50.552Z,1.15
2019-01-02T05:18:50.583Z,1.15
2019-01-02T05:20:50.612Z,1.16
2019-01-02T05:22:50.634Z,1.17
2019-01-02T05:24:50.575Z,1.17
2019-01-02T05:26:50.547Z,1.19
2019-01-02T05:28:49.735Z,1.20
2019-01-02T05:30:49.721Z,1.18
2019-01-02T05:32:49.781Z,1.15
2019-01-02T05:34:50.307Z,1.10
2019-01-02T05:36:50.504Z,1.04
2019-01-02T05:38:50.568Z,0.99
2019-01-02T05:40:50.538Z,1.05
2019-01-02T05:42:50.653Z,1.09
2019-01-02T05:44:50.644Z,1.12
2019-01-02T05:46:50.029Z,1.15
2019-01-02T05:48:50.001Z,1.16
2019-01-02T05:50:49.973Z,1.23
2019-01-02T05:52:50.034Z,1.25
2019-01-02T05:54:50.031Z,1.28
2019-01-02T05:56:50.289Z,1.28
2019-01-02T05:58:50.305Z,1.31
2019-01-02T06:00:50.333Z,1.31
2019-01-02T06:02:50.344Z,1.33
2019-01-02T06:04:50.759Z,1.33
2019-01-02T06:06:50.003Z,1.32
2019-01-02T06:08:50.042Z,1.33
2019-01-02T06:10:50.016Z,1.32
2019-01-02T06:12:50.018Z,1.33
2019-01-02T06:14:49.982Z,1.32
2019-01-02T06:16:50.146Z,1.36
2019-01-02T06:18:50.171Z,1.41
2019-01-02T06:20:50.232Z,1.41
2019-01-02T06:22:50.145Z,1.42
2019-01-02T06:24:50.177Z,1.42
2019-01-02T06:26:50.454Z,1.41
2019-01-02T06:28:50.511Z,1.41
2019-01-02T06:30:50.576Z,1.40
2019-01-02T06:32:50.578Z,1.41
2019-01-02T06:34:49.914Z,1.43
2019-01-02T06:36:49.908Z,1.45
2019-01-02T06:38:49.927Z,1.45
2019-01-02T06:40:49.944Z,1.47
2019-01-02T06:42:49.958Z,1.50
2019-01-02T06:44:49.972Z,1.52
2019-01-02T06:46:50.108Z,1.51
2019-01-02T06:48:50.047Z,1.50
2019-01-02T06:50:50.079Z,1.49
2019-01-02T06:52:50.124Z,1.49
2019-01-02T06:54:50.137Z,1.47
2019-01-02T06:56:50.346Z,1.44
2019-01-02T06:58:50.316Z,1.40
2019-01-02T07:00:50.405Z,1.39
2019-01-02T07:02:50.418Z,1.40
2019-01-02T07:04:49.698Z,1.40
2019-01-02T07:06:49.980Z,1.43
2019-01-02T07:08:50.029Z,1.44
2019-01-02T07:10:50.018Z,1.39
2019-01-02T07:12:50.019Z,1.37
2019-01-02T07:14:50.017Z,1.31
2019-01-02T07:16:50.236Z,1.24
2019-01-02T07:18:50.239Z,1.23
2019-01-02T07:20:50.201Z,1.23
2019-01-02T07:22:50.219Z,1.26
2019-01-02T07:24:50.166Z,1.26
2019-01-02T07:26:50.421Z,1.26
2019-01-02T07:28:50.405Z,1.25
2019-01-02T07:30:50.362Z,1.28
2019-01-02T07:32:50.433Z,1.28
2019-01-02T07:34:49.719Z,1.29
2019-01-02T07:36:49.895Z,1.30
2019-01-02T07:38:49.998Z,1.29
2019-01-02T07:40:49.963Z,1.26
2019-01-02T07:42:49.918Z,1.22
2019-01-02T07:44:49.921Z,1.15
2019-01-02T07:46:50.140Z,1.11
2019-01-02T07:48:50.135Z,1.08
2019-01-02T07:50:50.486Z,1.05
2019-01-02T07:52:50.516Z,1.03
2019-01-02T07:54:50.482Z,1.03
2019-01-02T07:56:49.849Z,1.00
2019-01-02T07:58:49.852Z,0.97
2019-01-02T08:00:50.016Z,0.99
2019-01-02T08:02:50.089Z,0.98
2019-01-02T08:04:50.350Z,0.99
2019-01-02T08:06:50.544Z,0.96
2019-01-02T08:08:50.622Z,0.96
2019-01-02T08:10:50.623Z,0.99
2019-01-02T08:12:50.739Z,0.99
2019-01-02T08:14:49.690Z,1.00
2019-01-02T08:16:50.640Z,1.05
2019-01-02T08:18:49.895Z,1.08
2019-01-02T08:20:49.923Z,1.13
2019-01-02T08:22:50.616Z,1.14
2019-01-02T08:24:50.674Z,1.16
2019-01-02T08:26:49.768Z,1.21
2019-01-02T08:28:49.722Z,1.22
2019-01-02T08:30:49.861Z,1.25
2019-01-02T08:32:49.870Z,1.29
2019-01-02T08:34:50.342Z,1.33
2019-01-02T08:36:50.296Z,1.37
2019-01-02T08:38:49.925Z,1.40
2019-01-02T08:40:49.914Z,1.45
2019-01-02T08:42:49.886Z,1.49
2019-01-02T08:44:49.833Z,1.52
2019-01-02T08:46:50.098Z,1.53
2019-01-02T08:48:50.095Z,1.56
2019-01-02T08:50:50.175Z,1.59
2019-01-02T08:52:50.198Z,1.63
2019-01-02T08:54:50.246Z,1.66
2019-01-02T08:56:50.374Z,1.69
2019-01-02T08:58:50.347Z,1.71
2019-01-02T09:00:50.195Z,1.71
2019-01-02T09:02:49.842Z,1.74
2019-01-02T09:04:50.220Z,1.75
2019-01-02T09:06:50.268Z,1.77
2019-01-02T09:08:50.285Z,1.78
2019-01-02T09:10:50.308Z,1.81
2019-01-02T09:12:50.278Z,1.82
2019-01-02T09:14:50.261Z,1.86
2019-01-02T09:16:50.466Z,1.89
2019-01-02T09:18:50.490Z,1.91
2019-01-02T09:20:50.507Z,1.94
2019-01-02T09:22:50.595Z,1.95
2019-01-02T09:24:49.717Z,2.00
2019-01-02T09:26:49.929Z,2.05
2019-01-02T09:28:49.879Z,2.09
2019-01-02T09:30:49.954Z,2.12
2019-01-02T09:32:50.625Z,2.15
2019-01-02T09:34:49.863Z,2.14
2019-01-02T09:36:49.828Z,2.12
2019-01-02T09:38:49.842Z,2.11
2019-01-02T09:40:49.888Z,2.10
2019-01-02T09:42:49.865Z,2.16
2019-01-02T09:44:49.899Z,2.19
2019-01-02T09:46:50.176Z,2.27
2019-01-02T09:48:49.737Z,2.31
2019-01-02T09:50:49.753Z,2.35
2019-01-02T09:52:49.800Z,2.38
2019-01-02T09:54:49.815Z,2.39
2019-01-02T09:56:50.135Z,2.42
2019-01-02T09:58:50.170Z,2.46
2019-01-02T10:00:50.534Z,2.46
2019-01-02T10:02:50.609Z,2.47
2019-01-02T10:04:49.898Z,2.50
2019-01-02T10:06:50.516Z,2.56
2019-01-02T10:08:50.584Z,2.58
2019-01-02T10:10:50.628Z,2.61
2019-01-02T10:12:50.344Z,2.67
2019-01-02T10:14:50.351Z,2.75
2019-01-02T10:16:50.492Z,2.95
2019-01-02T10:18:50.573Z,3.02
2019-01-02T10:20:49.863Z,2.97
2019-01-02T10:22:50.202Z,2.91
2019-01-02T10:24:50.245Z,2.88
2019-01-02T10:26:50.413Z,2.90
2019-01-02T10:28:50.446Z,2.90
2019-01-02T10:30:50.491Z,2.86
2019-01-02T10:32:50.474Z,2.83
2019-01-02T10:34:49.694Z,2.81
2019-01-02T10:36:49.959Z,2.77
2019-01-02T10:38:50.007Z,2.70
2019-01-02T10:40:50.028Z,2.65
2019-01-02T10:42:50.050Z,2.64
2019-01-02T10:44:50.125Z,2.61
2019-01-02T10:46:50.200Z,2.57
2019-01-02T10:48:49.787Z,2.55
2019-01-02T10:50:49.919Z,2.52
2019-01-02T10:52:49.922Z,2.52
2019-01-02T10:54:50.228Z,2.24
2019-01-02T10:56:50.355Z,2.14
2019-01-02T10:58:50.350Z,1.92
2019-01-02T11:00:50.357Z,1.86
2019-01-02T11:02:50.345Z,1.88
2019-01-02T11:04:49.696Z,1.99
2019-01-02T11:06:49.994Z,1.92
2019-01-02T11:08:50.002Z,1.92
2019-01-02T11:10:49.938Z,1.49
2019-01-02T11:12:49.866Z,1.36
2019-01-02T11:14:49.868Z,1.25
2019-01-02T11:16:50.270Z,1.16
2019-01-02T11:18:50.257Z,1.06
2019-01-02T11:20:50.151Z,1.02
2019-01-02T11:22:50.661Z,0.94
2019-01-02T11:24:50.312Z,0.84
2019-01-02T11:26:50.516Z,0.84
2019-01-02T11:28:50.508Z,0.90
2019-01-02T11:30:50.571Z,0.96
2019-01-02T11:32:50.532Z,1.00
2019-01-02T11:34:49.864Z,1.10
2019-01-02T11:36:49.900Z,1.25
2019-01-02T11:38:50.095Z,1.27
2019-01-02T11:40:50.715Z,1.64
2019-01-02T11:42:49.988Z,2.12
2019-01-02T11:44:50.227Z,2.5
2019-01-02T11:46:50.524Z,2.5
2019-01-02T11:48:50.710Z,2.5
2019-01-02T11:50:49.872Z,2.5
2019-01-02T11:52:50.147Z,2.6
2019-01-02T11:54:50.392Z,2.6
2019-01-02T11:56:50.806Z,2.6
2019-01-02T11:58:50.585Z,2.6
2019-01-02T12:00:50.716Z,2.6
2019-01-02T12:02:49.899Z,2.7
2019-01-02T12:04:50.632Z,2.7
2019-01-02T12:06:49.963Z,2.7
2019-01-02T12:08:50.160Z,2.8
2019-01-02T12:10:50.285Z,3.0
2019-01-02T12:12:50.488Z,3.1
2019-01-02T12:14:50.665Z,3.1
2019-01-02T12:16:49.987Z,3.4
2019-01-02T12:18:49.964Z,3.23
2019-01-02T12:20:49.952Z,2.87
2019-01-02T12:22:49.988Z,2.57
2019-01-02T12:24:49.947Z,2.49
2019-01-02T12:26:50.278Z,2.39
2019-01-02T12:28:50.240Z,2.35
2019-01-02T12:30:50.248Z,2.26
2019-01-02T12:32:50.193Z,2.16
2019-01-02T12:34:50.738Z,2.12
2019-01-02T12:36:50.101Z,2.14
2019-01-02T12:38:50.273Z,2.15
2019-01-02T12:40:50.462Z,2.21
2019-01-02T12:42:50.586Z,2.23
2019-01-02T12:44:50.757Z,2.25
2019-01-02T12:46:50.060Z,2.28
2019-01-02T12:48:50.073Z,2.30
2019-01-02T12:50:50.118Z,2.32
2019-01-02T12:52:50.072Z,2.36
2019-01-02T12:54:50.092Z,2.40
2019-01-02T12:56:50.272Z,2.42
2019-01-02T12:58:50.301Z,2.43
2019-01-02T13:00:50.390Z,2.46
2019-01-02T13:02:50.491Z,2.50
2019-01-02T13:04:49.772Z,2.58
2019-01-02T13:06:49.989Z,2.68
2019-01-02T13:08:50.012Z,2.79
2019-01-02T13:10:49.985Z,2.83
2019-01-02T13:12:50.244Z,3.01
2019-01-02T13:14:50.458Z,3.15
2019-01-02T13:16:50.772Z,3.27
2019-01-02T13:18:49.978Z,3.31
2019-01-02T13:20:50.210Z,3.42
2019-01-02T13:22:50.360Z,3.42
2019-01-02T13:24:50.510Z,3.31
2019-01-02T13:26:49.952Z,3.18
2019-01-02T13:28:50.433Z,3.08
2019-01-02T13:30:50.396Z,2.99
2019-01-02T13:32:50.382Z,2.96
2019-01-02T13:34:49.996Z,2.90
2019-01-02T13:36:50.273Z,2.85
2019-01-02T13:38:50.257Z,2.89
2019-01-02T13:40:50.285Z,2.86
2019-01-02T13:42:50.360Z,2.75
2019-01-02T13:44:50.414Z,2.37
2019-01-02T13:46:50.684Z,2.37
2019-01-02T13:48:50.666Z,1.93
2019-01-02T13:50:49.813Z,1.87
2019-01-02T13:52:49.907Z,1.83
2019-01-02T13:54:49.925Z,1.81
2019-01-02T13:56:50.047Z,1.77
2019-01-02T13:58:49.953Z,1.75
2019-01-02T14:00:49.977Z,1.74
2019-01-02T14:02:50.002Z,1.77
2019-01-02T14:04:50.320Z,1.79
2019-01-02T14:06:50.503Z,1.80
2019-01-02T14:08:50.579Z,1.77
2019-01-02T14:10:50.582Z,1.70
2019-01-02T14:12:49.748Z,1.64
2019-01-02T14:14:49.860Z,1.57
2019-01-02T14:16:50.039Z,1.57
2019-01-02T14:18:50.057Z,1.64
2019-01-02T14:20:50.070Z,1.76
2019-01-02T14:22:50.064Z,1.85
2019-01-02T14:24:50.111Z,1.95
2019-01-02T14:26:50.323Z,2.02
2019-01-02T14:28:50.342Z,2.06
2019-01-02T14:30:51.225Z,2.02
2019-01-02T14:32:50.162Z,1.97
2019-01-02T14:34:50.508Z,1.90
2019-01-02T14:36:50.677Z,1.87
2019-01-02T14:38:49.731Z,1.85
2019-01-02T14:40:49.751Z,1.88
2019-01-02T14:42:49.835Z,1.90
2019-01-02T14:44:49.798Z,1.87
2019-01-02T14:46:51.026Z,1.87
2019-01-02T14:48:50.074Z,1.85
2019-01-02T14:50:50.122Z,1.85
2019-01-02T14:52:50.181Z,1.76
2019-01-02T14:54:50.252Z,1.72
2019-01-02T14:56:50.426Z,1.67
2019-01-02T14:58:50.457Z,1.65
2019-01-02T15:00:50.466Z,1.61
2019-01-02T15:02:50.394Z,1.61
2019-01-02T15:04:49.833Z,1.64
2019-01-02T15:06:50.117Z,1.64
2019-01-02T15:08:50.220Z,1.67
2019-01-02T15:10:50.243Z,1.68
2019-01-02T15:12:50.294Z,1.69
2019-01-02T15:14:50.274Z,1.65
2019-01-02T15:16:50.577Z,1.63
2019-01-02T15:18:50.509Z,1.59
2019-01-02T15:20:50.500Z,1.53
2019-01-02T15:22:50.506Z,1.44
2019-01-02T15:24:50.493Z,1.35
2019-01-02T15:26:49.754Z,1.36
2019-01-02T15:28:49.809Z,1.30
2019-01-02T15:30:49.943Z,1.28
2019-01-02T15:32:49.994Z,1.28
2019-01-02T15:34:50.483Z,1.25
2019-01-02T15:36:49.741Z,1.18
2019-01-02T15:38:49.705Z,1.14
2019-01-02T15:40:49.807Z,1.10
2019-01-02T15:42:49.797Z,1.09
2019-01-02T15:44:49.847Z,1.06
2019-01-02T15:46:50.062Z,1.06
2019-01-02T15:48:50.119Z,1.05
2019-01-02T15:50:50.171Z,1.09
2019-01-02T15:52:50.160Z,1.08
2019-01-02T15:54:50.203Z,1.06
2019-01-02T15:56:50.408Z,1.02
2019-01-02T15:58:50.418Z,0.97
2019-01-02T16:00:50.406Z,0.91
2019-01-02T16:02:50.425Z,0.92
2019-01-02T16:04:50.010Z,0.92
2019-01-02T16:06:50.162Z,0.90
2019-01-02T16:08:50.106Z,0.88
2019-01-02T16:10:50.097Z,0.86
2019-01-02T16:12:50.126Z,0.83
2019-01-02T16:14:50.117Z,0.81
2019-01-02T16:16:50.379Z,0.81
2019-01-02T16:18:50.421Z,0.82
2019-01-02T16:20:51.709Z,0.86
2019-01-02T16:22:49.811Z,0.84
2019-01-02T16:24:49.812Z,0.80
2019-01-02T16:26:50.050Z,0.80
2019-01-02T16:28:49.971Z,0.80
2019-01-02T16:30:49.989Z,0.76
2019-01-02T16:32:50.005Z,0.69
2019-01-02T16:34:50.261Z,0.59
2019-01-02T16:36:50.474Z,0.58
2019-01-02T16:38:50.538Z,0.58
2019-01-02T16:40:50.477Z,0.57
2019-01-02T16:42:50.464Z,0.57
2019-01-02T16:44:50.412Z,0.58
2019-01-02T16:46:50.670Z,0.55
2019-01-02T16:48:50.605Z,0.54
2019-01-02T16:50:50.696Z,0.48
2019-01-02T16:52:49.762Z,0.43
2019-01-02T16:54:49.820Z,0.41
2019-01-02T16:56:50.201Z,0.41
2019-01-02T16:58:50.271Z,0.38
2019-01-02T17:00:50.375Z,0.33
2019-01-02T17:02:50.436Z,0.33
2019-01-02T17:04:49.718Z,0.32
2019-01-02T17:06:50.008Z,0.32
2019-01-02T17:08:50.008Z,0.29
2019-01-02T17:10:50.026Z,0.23
2019-01-02T17:12:49.948Z,0.22
2019-01-02T17:14:49.952Z,0.17
2019-01-02T17:16:50.113Z,0.15
2019-01-02T17:18:50.100Z,0.13
2019-01-02T17:20:50.104Z,0.10
2019-01-02T17:22:50.109Z,0.10
2019-01-02T17:24:50.089Z,0.06
2019-01-02T17:26:50.319Z,0.02
2019-01-02T18:12:49.894Z,0.03
2019-01-02T18:14:49.946Z,0.07
2019-01-02T18:16:50.073Z,0.10
2019-01-02T18:18:50.093Z,0.16
2019-01-02T18:20:50.027Z,0.18
2019-01-02T18:22:50.045Z,0.22
2019-01-02T18:24:50.036Z,0.26
2019-01-02T18:26:50.248Z,0.31
2019-01-02T18:28:50.276Z,0.35
2019-01-02T18:30:50.312Z,0.37
2019-01-02T18:32:50.358Z,0.36
2019-01-02T18:34:49.752Z,0.37
2019-01-02T18:36:50.042Z,0.38
2019-01-02T18:38:50.125Z,0.40
2019-01-02T18:40:50.127Z,0.47
2019-01-02T18:42:50.130Z,0.48
2019-01-02T18:44:50.121Z,0.49
2019-01-02T18:46:50.436Z,0.49
2019-01-02T18:48:50.509Z,0.48
2019-01-02T18:50:50.608Z,0.45
2019-01-02T18:52:50.652Z,0.45
2019-01-02T18:54:49.700Z,0.40
2019-01-02T18:56:49.952Z,0.40
2019-01-02T18:58:49.974Z,0.38
2019-01-02T19:00:49.951Z,0.42
2019-01-02T19:02:49.958Z,0.46
2019-01-02T19:04:50.305Z,0.48
2019-01-02T19:06:50.479Z,0.51
2019-01-02T19:08:50.516Z,0.52
2019-01-02T19:10:50.590Z,0.53
2019-01-02T19:12:50.641Z,0.57
2019-01-02T19:14:49.748Z,0.59
2019-01-02T19:16:49.909Z,0.59
2019-01-02T19:18:49.885Z,0.58
2019-01-02T19:20:49.899Z,0.56
2019-01-02T19:22:49.939Z,0.55
2019-01-02T19:24:49.973Z,0.56
2019-01-02T19:26:50.188Z,0.56
2019-01-02T19:28:50.185Z,0.56
2019-01-02T19:30:50.243Z,0.56
2019-01-02T19:32:50.210Z,0.56
2019-01-02T19:34:50.467Z,0.56
2019-01-02T19:36:50.670Z,0.58
2019-01-02T19:38:49.761Z,0.56
2019-01-02T19:40:49.755Z,0.55
2019-01-02T19:42:49.796Z,0.52
2019-01-02T19:44:49.767Z,0.51
2019-01-02T19:46:50.018Z,0.51
2019-01-02T19:48:50.082Z,0.48
2019-01-02T19:50:50.047Z,0.47
2019-01-02T19:52:50.064Z,0.48
2019-01-02T19:54:50.083Z,0.52
2019-01-02T19:56:50.310Z,0.51
2019-01-02T19:58:50.341Z,0.50
2019-01-02T20:00:50.326Z,0.50
2019-01-02T20:02:50.424Z,0.46
2019-01-02T20:04:49.745Z,0.45
2019-01-02T20:06:50.019Z,0.45
2019-01-02T20:08:50.099Z,0.46
2019-01-02T20:10:50.081Z,0.46
2019-01-02T20:12:50.037Z,0.46
2019-01-02T20:14:50.133Z,0.40
2019-01-02T20:16:50.313Z,0.37
2019-01-02T20:18:50.341Z,0.32
2019-01-02T20:20:50.305Z,0.27
2019-01-02T20:22:50.378Z,0.23
2019-01-02T20:24:50.423Z,0.18
2019-01-02T20:26:55.864Z,0.15
2019-01-02T20:28:49.852Z,0.13
2019-01-02T20:30:49.815Z,0.22
2019-01-02T20:32:49.947Z,0.21
2019-01-02T20:34:50.303Z,0.17
2019-01-02T20:36:50.492Z,0.14
2019-01-02T20:38:50.462Z,0.08
2019-01-02T20:40:50.637Z,0.03
2019-01-02T20:54:49.805Z,0.00
2019-01-02T20:56:50.049Z,0.03
2019-01-02T20:58:50.061Z,0.03
2019-01-02T21:00:50.119Z,0.04
2019-01-02T21:02:50.100Z,0.07
2019-01-02T21:04:50.447Z,0.07
2019-01-02T21:06:49.709Z,0.08
2019-01-02T21:08:49.757Z,0.08
2019-01-02T21:10:49.801Z,0.06
2019-01-02T21:12:49.902Z,0.02
2019-01-02T21:14:49.959Z,0.00
